createdAt,value
2019-01-30T00:01:15.922Z,11.17
2019-01-30T00:03:44.989Z,11.00
2019-01-30T00:06:14.036Z,12.43
2019-01-30T00:08:43.118Z,12.87
2019-01-30T00:11:12.192Z,15.33
2019-01-30T00:13:41.250Z,16.83
2019-01-30T00:16:10.343Z,11.70
2019-01-30T00:18:39.400Z,13.60
2019-01-30T00:21:08.461Z,14.47
2019-01-30T00:23:37.568Z,10.03
2019-01-30T00:26:06.616Z,9.50
2019-01-30T00:28:35.677Z,10.60
2019-01-30T00:31:04.752Z,8.97
2019-01-30T00:33:33.812Z,9.70
2019-01-30T00:36:02.862Z,9.10
2019-01-30T00:38:31.944Z,9.20
2019-01-30T00:41:00.998Z,9.17
2019-01-30T00:43:30.054Z,9.80
2019-01-30T00:45:59.152Z,10.47
2019-01-30T00:48:28.204Z,10.20
2019-01-30T00:50:57.397Z,9.67
2019-01-30T00:53:26.421Z,11.10
2019-01-30T00:55:55.479Z,9.70
2019-01-30T00:58:24.539Z,10.33
2019-01-30T01:00:53.624Z,10.47
2019-01-30T01:03:22.683Z,10.67
2019-01-30T01:05:51.734Z,10.73
2019-01-30T01:08:20.864Z,10.50
2019-01-30T01:10:49.927Z,10.10
2019-01-30T01:13:18.990Z,10.40
2019-01-30T01:15:48.076Z,11.40
2019-01-30T01:18:17.147Z,10.93
2019-01-30T01:20:46.204Z,11.07
2019-01-30T01:23:15.293Z,11.57
2019-01-30T01:25:44.349Z,12.07
2019-01-30T01:28:13.411Z,11.63
2019-01-30T01:30:42.543Z,11.47
2019-01-30T01:33:11.601Z,12.67
2019-01-30T01:35:40.659Z,12.00
2019-01-30T01:38:09.736Z,12.00
2019-01-30T01:40:38.800Z,11.47
2019-01-30T01:43:07.859Z,10.90
2019-01-30T01:45:36.946Z,11.60
2019-01-30T01:48:06.002Z,12.03
2019-01-30T01:50:35.071Z,12.30
2019-01-30T01:53:04.205Z,11.87
2019-01-30T01:55:33.255Z,12.13
2019-01-30T01:58:02.309Z,12.10
2019-01-30T02:00:35.500Z,11.40
2019-01-30T02:03:00.445Z,11.03
2019-01-30T02:05:29.508Z,10.77
2019-01-30T02:07:58.597Z,12.90
2019-01-30T02:10:27.650Z,12.57
2019-01-30T02:12:56.716Z,12.93
2019-01-30T02:15:25.834Z,11.77
2019-01-30T02:17:54.887Z,12.47
2019-01-30T02:20:23.944Z,10.60
2019-01-30T02:22:53.029Z,11.90
2019-01-30T02:25:22.090Z,10.93
2019-01-30T02:27:51.145Z,12.27
2019-01-30T02:30:21.084Z,11.07
2019-01-30T02:32:50.139Z,10.60
2019-01-30T02:35:19.203Z,10.67
2019-01-30T02:37:48.307Z,12.37
2019-01-30T02:40:17.365Z,11.17
2019-01-30T02:42:46.423Z,10.80
2019-01-30T02:45:15.803Z,11.63
2019-01-30T02:47:44.812Z,10.50
2019-01-30T02:50:13.878Z,12.53
2019-01-30T02:52:42.956Z,11.90
2019-01-30T02:55:12.009Z,11.37
2019-01-30T02:57:41.070Z,11.60
2019-01-30T03:00:15.893Z,13.97
2019-01-30T03:02:44.951Z,13.90
2019-01-30T03:05:14.010Z,13.53
2019-01-30T03:07:43.086Z,14.43
2019-01-30T03:10:13.027Z,17.27
2019-01-30T03:12:42.091Z,16.40
2019-01-30T03:15:11.183Z,16.73
2019-01-30T03:17:40.253Z,17.70
2019-01-30T03:20:09.308Z,18.07
2019-01-30T03:22:38.411Z,18.17
2019-01-30T03:25:08.199Z,19.87
2019-01-30T03:27:37.252Z,17.07
2019-01-30T03:30:06.345Z,17.30
2019-01-30T03:32:35.416Z,16.77
2019-01-30T03:35:04.470Z,16.30
2019-01-30T03:37:33.562Z,12.90
2019-01-30T03:40:02.601Z,14.47
2019-01-30T03:42:31.661Z,14.57
2019-01-30T03:45:00.768Z,15.07
2019-01-30T03:47:29.817Z,12.97
2019-01-30T03:49:58.884Z,12.57
2019-01-30T03:52:28.045Z,11.23
2019-01-30T03:54:57.109Z,12.03
2019-01-30T03:57:28.735Z,11.97
2019-01-30T03:59:55.244Z,12.33
2019-01-30T04:02:24.298Z,11.47
2019-01-30T04:04:53.354Z,12.00
2019-01-30T04:07:22.460Z,10.30
2019-01-30T04:09:51.526Z,11.27
2019-01-30T04:12:20.589Z,16.17
2019-01-30T04:14:49.673Z,15.10
2019-01-30T04:17:18.729Z,15.90
2019-01-30T04:19:47.789Z,13.83
2019-01-30T04:22:16.884Z,14.70
2019-01-30T04:24:45.943Z,12.30
2019-01-30T04:27:15.007Z,13.30
2019-01-30T04:29:44.169Z,14.33
2019-01-30T04:32:13.224Z,15.43
2019-01-30T04:34:42.272Z,17.90
2019-01-30T04:37:11.459Z,18.83
2019-01-30T04:39:40.522Z,18.73
2019-01-30T04:42:09.587Z,27.37
2019-01-30T04:44:38.678Z,25.40
2019-01-30T04:47:08.755Z,27.37
2019-01-30T04:49:37.813Z,24.60
2019-01-30T04:52:06.914Z,21.03
2019-01-30T04:54:36.100Z,25.70
2019-01-30T04:57:05.111Z,19.37
2019-01-30T04:59:34.186Z,23.20
2019-01-30T05:02:03.238Z,25.90
2019-01-30T05:04:32.290Z,26.50
2019-01-30T05:07:03.396Z,17.00
2019-01-30T05:09:32.446Z,13.57
2019-01-30T05:12:01.497Z,13.17
2019-01-30T05:14:30.698Z,14.03
2019-01-30T05:16:59.873Z,12.57
2019-01-30T05:19:28.802Z,13.47
2019-01-30T05:21:57.895Z,14.60
2019-01-30T05:24:26.953Z,17.33
2019-01-30T05:26:56.010Z,27.10
2019-01-30T05:29:25.146Z,29.40
2019-01-30T05:32:00.959Z,22.13
2019-01-30T05:34:23.222Z,29.27
2019-01-30T05:36:57.680Z,64.03
2019-01-30T05:39:26.737Z,30.40
2019-01-30T05:41:55.797Z,48.23
2019-01-30T05:44:24.883Z,46.73
2019-01-30T05:46:53.938Z,30.47
2019-01-30T05:49:22.996Z,34.13
2019-01-30T05:51:52.093Z,62.30
2019-01-30T05:54:21.164Z,80.60
2019-01-30T05:56:50.241Z,99.57
2019-01-30T05:59:19.407Z,110.63
2019-01-30T06:01:48.480Z,94.67
2019-01-30T06:04:17.534Z,63.07
2019-01-30T06:06:46.623Z,29.77
2019-01-30T06:09:15.679Z,25.07
2019-01-30T06:11:44.743Z,49.73
2019-01-30T06:14:13.917Z,21.20
2019-01-30T06:16:42.902Z,21.43
2019-01-30T06:19:11.967Z,20.33
2019-01-30T06:21:41.063Z,22.50
2019-01-30T06:24:10.112Z,21.60
2019-01-30T06:26:39.184Z,18.67
2019-01-30T06:29:08.275Z,19.13
2019-01-30T06:31:37.336Z,21.30
2019-01-30T06:34:06.402Z,22.70
2019-01-30T06:36:35.500Z,23.60
2019-01-30T06:39:04.587Z,26.83
2019-01-30T06:41:33.637Z,24.90
2019-01-30T06:44:02.760Z,25.73
2019-01-30T06:46:31.812Z,22.07
2019-01-30T06:49:00.861Z,25.40
2019-01-30T06:51:29.964Z,16.87
2019-01-30T06:53:59.032Z,17.13
2019-01-30T06:56:28.096Z,27.33
2019-01-30T06:58:57.256Z,41.43
2019-01-30T07:01:26.319Z,36.13
2019-01-30T07:03:55.476Z,38.53
2019-01-30T07:06:24.510Z,55.73
2019-01-30T07:08:53.561Z,34.90
2019-01-30T07:11:22.609Z,40.00
2019-01-30T07:13:51.703Z,24.97
2019-01-30T07:16:20.813Z,33.47
2019-01-30T07:18:49.899Z,31.83
2019-01-30T07:21:18.990Z,61.67
2019-01-30T07:23:48.089Z,30.77
2019-01-30T07:26:17.303Z,30.10
2019-01-30T07:28:46.409Z,30.00
2019-01-30T07:31:15.468Z,29.77
2019-01-30T07:33:44.515Z,42.53
2019-01-30T07:36:13.597Z,17.40
2019-01-30T07:38:42.653Z,17.50
2019-01-30T07:41:11.713Z,15.57
2019-01-30T07:43:40.806Z,15.83
2019-01-30T07:46:09.867Z,15.80
2019-01-30T07:48:38.929Z,32.20
2019-01-30T07:51:08.028Z,18.33
2019-01-30T07:53:37.097Z,17.57
2019-01-30T07:56:06.164Z,20.47
2019-01-30T07:58:35.310Z,20.70
2019-01-30T08:01:04.335Z,31.43
2019-01-30T08:03:33.380Z,20.73
2019-01-30T08:06:02.502Z,22.50
2019-01-30T08:08:31.556Z,18.97
2019-01-30T08:11:00.606Z,16.33
2019-01-30T08:13:29.748Z,16.50
2019-01-30T08:15:58.805Z,17.57
2019-01-30T08:18:27.865Z,21.00
2019-01-30T08:20:56.965Z,19.67
2019-01-30T08:23:26.343Z,19.33
2019-01-30T08:25:55.285Z,21.93
2019-01-30T08:28:24.195Z,21.47
2019-01-30T08:30:53.383Z,41.53
2019-01-30T08:33:22.266Z,24.90
2019-01-30T08:35:51.361Z,28.33
2019-01-30T08:38:20.422Z,42.77
2019-01-30T08:40:49.479Z,39.00
2019-01-30T08:43:18.566Z,29.33
2019-01-30T08:45:47.615Z,25.63
2019-01-30T08:48:16.671Z,22.43
2019-01-30T08:50:45.748Z,18.37
2019-01-30T08:53:14.806Z,23.70
2019-01-30T08:55:43.945Z,15.83
2019-01-30T08:58:12.977Z,16.97
2019-01-30T09:00:42.026Z,16.73
2019-01-30T09:03:15.043Z,16.67
2019-01-30T09:05:40.190Z,16.17
2019-01-30T09:08:09.250Z,15.87
2019-01-30T09:10:38.297Z,16.97
2019-01-30T09:13:07.383Z,16.47
2019-01-30T09:15:36.473Z,17.60
2019-01-30T09:18:05.537Z,19.80
2019-01-30T09:20:34.639Z,19.63
2019-01-30T09:23:03.695Z,17.70
2019-01-30T09:25:32.776Z,18.77
2019-01-30T09:28:02.207Z,18.70
2019-01-30T09:30:34.011Z,24.27
2019-01-30T09:33:03.163Z,29.63
2019-01-30T09:35:32.185Z,27.07
2019-01-30T09:38:01.279Z,23.60
2019-01-30T09:40:30.390Z,25.10
2019-01-30T09:42:59.455Z,22.53
2019-01-30T09:45:28.512Z,24.63
2019-01-30T09:47:57.608Z,23.23
2019-01-30T09:50:26.649Z,20.57
2019-01-30T09:52:55.709Z,24.67
2019-01-30T09:55:24.796Z,24.20
2019-01-30T09:57:53.838Z,23.73
2019-01-30T10:00:25.753Z,24.00
2019-01-30T10:02:54.807Z,22.67
2019-01-30T10:05:23.856Z,28.63
2019-01-30T10:07:55.015Z,26.37
2019-01-30T10:10:21.987Z,22.30
2019-01-30T10:12:51.037Z,23.37
2019-01-30T10:15:20.121Z,25.20
2019-01-30T10:17:49.169Z,26.47
2019-01-30T10:20:20.145Z,24.63
2019-01-30T10:22:49.298Z,20.87
2019-01-30T10:25:18.358Z,22.53
2019-01-30T10:27:47.420Z,19.33
2019-01-30T10:30:16.539Z,19.40
2019-01-30T10:32:45.607Z,21.33
2019-01-30T10:35:14.671Z,24.23
2019-01-30T10:37:43.802Z,21.27
2019-01-30T10:40:12.882Z,21.63
2019-01-30T10:42:42.837Z,19.47
2019-01-30T10:45:12.076Z,16.43
2019-01-30T10:47:41.130Z,19.40
2019-01-30T10:50:11.015Z,20.63
2019-01-30T10:52:40.113Z,19.23
2019-01-30T10:55:09.995Z,20.50
2019-01-30T10:57:39.056Z,19.77
2019-01-30T11:00:08.138Z,18.77
2019-01-30T11:02:37.203Z,21.77
2019-01-30T11:05:06.271Z,19.93
2019-01-30T11:07:35.641Z,20.83
2019-01-30T11:10:04.698Z,20.27
2019-01-30T11:12:33.762Z,21.43
2019-01-30T11:15:03.368Z,19.73
2019-01-30T11:17:32.204Z,22.07
2019-01-30T11:20:01.271Z,23.43
2019-01-30T11:22:30.366Z,20.37
2019-01-30T11:24:59.430Z,21.43
2019-01-30T11:27:28.487Z,20.53
2019-01-30T11:29:57.604Z,23.20
2019-01-30T11:32:26.680Z,19.73
2019-01-30T11:34:55.739Z,20.77
2019-01-30T11:37:24.823Z,21.03
2019-01-30T11:39:53.890Z,22.37
2019-01-30T11:42:23.019Z,19.90
2019-01-30T11:44:52.925Z,24.27
2019-01-30T11:47:21.994Z,21.93
2019-01-30T11:49:51.061Z,22.73
2019-01-30T11:52:20.498Z,22.57
2019-01-30T11:54:49.556Z,21.03
2019-01-30T11:57:18.622Z,20.40
2019-01-30T11:59:47.710Z,20.63
2019-01-30T12:02:16.786Z,19.20
2019-01-30T12:04:45.847Z,19.77
2019-01-30T12:07:14.940Z,18.50
2019-01-30T12:09:43.998Z,18.97
2019-01-30T12:12:13.063Z,16.40
2019-01-30T12:14:42.175Z,16.70
2019-01-30T12:17:11.235Z,16.97
2019-01-30T12:19:40.293Z,16.40
2019-01-30T12:22:09.376Z,18.40
2019-01-30T12:24:38.426Z,17.33
2019-01-30T12:27:07.494Z,19.63
2019-01-30T12:29:36.574Z,17.33
2019-01-30T12:32:05.642Z,15.30
2019-01-30T12:34:34.697Z,13.97
2019-01-30T12:37:03.802Z,21.83
2019-01-30T12:39:32.870Z,36.27
2019-01-30T12:42:01.919Z,24.57
2019-01-30T12:44:33.323Z,20.40
2019-01-30T12:47:00.075Z,22.53
2019-01-30T12:49:29.140Z,26.73
2019-01-30T12:51:58.225Z,39.93
2019-01-30T12:54:27.298Z,25.20
2019-01-30T12:56:56.364Z,18.30
2019-01-30T12:59:25.478Z,16.10
2019-01-30T13:01:54.540Z,15.20
2019-01-30T13:04:23.608Z,14.73
2019-01-30T13:06:52.698Z,15.73
2019-01-30T13:09:21.758Z,18.20
2019-01-30T13:11:50.814Z,19.83
2019-01-30T13:14:19.897Z,15.63
2019-01-30T13:16:48.952Z,14.97
2019-01-30T13:19:18.013Z,19.73
2019-01-30T13:21:47.116Z,20.27
2019-01-30T13:24:16.171Z,17.63
2019-01-30T13:26:45.240Z,20.73
2019-01-30T13:29:14.335Z,25.33
2019-01-30T13:31:43.401Z,18.07
2019-01-30T13:34:12.448Z,18.50
2019-01-30T13:36:41.547Z,24.80
2019-01-30T13:39:10.612Z,20.33
2019-01-30T13:41:39.679Z,21.70
2019-01-30T13:44:08.827Z,21.13
2019-01-30T13:46:37.869Z,18.30
2019-01-30T13:49:06.939Z,23.07
2019-01-30T13:51:36.035Z,27.83
2019-01-30T13:54:05.071Z,19.07
2019-01-30T13:56:34.135Z,20.60
2019-01-30T13:59:03.221Z,59.87
2019-01-30T14:01:32.287Z,54.37
2019-01-30T14:04:01.353Z,68.47
2019-01-30T14:06:30.919Z,81.07
2019-01-30T14:08:59.964Z,71.47
2019-01-30T14:11:29.035Z,35.97
2019-01-30T14:13:58.116Z,31.23
2019-01-30T14:16:27.583Z,22.97
2019-01-30T14:18:56.567Z,23.70
2019-01-30T14:21:25.673Z,20.90
2019-01-30T14:23:54.770Z,19.03
2019-01-30T14:26:23.838Z,20.57
2019-01-30T14:28:52.946Z,19.87
2019-01-30T14:31:22.031Z,43.97
2019-01-30T14:33:51.066Z,29.70
2019-01-30T14:36:20.242Z,22.67
2019-01-30T14:38:49.335Z,21.50
2019-01-30T14:41:18.375Z,19.00
2019-01-30T14:43:47.463Z,21.83
2019-01-30T14:46:16.517Z,31.43
2019-01-30T14:48:46.343Z,34.53
2019-01-30T14:51:16.381Z,45.73
2019-01-30T14:53:45.930Z,45.97
2019-01-30T14:56:14.866Z,38.70
2019-01-30T14:58:43.981Z,41.43
2019-01-30T15:01:13.050Z,127.07
2019-01-30T15:03:42.119Z,105.60
2019-01-30T15:06:11.298Z,71.37
2019-01-30T15:08:40.342Z,118.70
2019-01-30T15:11:09.510Z,155.57
2019-01-30T15:13:38.758Z,193.67
2019-01-30T15:16:07.822Z,150.20
2019-01-30T15:18:36.934Z,112.07
2019-01-30T15:21:05.989Z,115.20
2019-01-30T15:23:35.086Z,126.60
2019-01-30T15:26:04.189Z,79.70
2019-01-30T15:28:33.291Z,59.47
2019-01-30T15:31:02.356Z,58.53
2019-01-30T15:33:31.427Z,52.73
2019-01-30T15:36:00.537Z,55.90
2019-01-30T15:38:29.606Z,62.13
2019-01-30T15:40:58.674Z,56.97
2019-01-30T15:43:27.762Z,51.17
2019-01-30T15:45:56.825Z,52.53
2019-01-30T15:48:25.881Z,50.07
2019-01-30T15:50:55.165Z,64.07
2019-01-30T15:53:24.128Z,58.77
2019-01-30T15:55:53.205Z,62.70
2019-01-30T15:58:22.315Z,79.40
2019-01-30T16:00:51.415Z,121.00
2019-01-30T16:03:20.502Z,214.10
2019-01-30T16:05:49.635Z,346.63
2019-01-30T16:08:18.699Z,281.23
2019-01-30T16:10:47.777Z,166.03
2019-01-30T16:13:16.872Z,105.73
2019-01-30T16:15:45.995Z,127.73
2019-01-30T16:18:15.072Z,186.87
2019-01-30T16:20:44.254Z,220.43
2019-01-30T16:23:13.321Z,213.17
2019-01-30T16:25:42.398Z,175.40
2019-01-30T16:28:11.493Z,116.37
2019-01-30T16:30:42.245Z,101.63
2019-01-30T16:33:09.891Z,75.93
2019-01-30T16:35:38.989Z,347.90
2019-01-30T16:38:08.265Z,342.10
2019-01-30T16:40:37.285Z,326.33
2019-01-30T16:43:06.809Z,227.57
2019-01-30T16:45:35.882Z,285.93
2019-01-30T16:48:04.966Z,181.23
2019-01-30T16:50:34.536Z,116.73
2019-01-30T16:53:03.424Z,78.07
2019-01-30T16:55:32.490Z,72.10
2019-01-30T16:58:01.585Z,81.83
2019-01-30T17:00:30.649Z,83.40
2019-01-30T17:02:59.726Z,99.10
2019-01-30T17:05:28.858Z,91.03
2019-01-30T17:07:57.929Z,82.07
2019-01-30T17:10:27.001Z,70.80
2019-01-30T17:12:56.081Z,79.90
2019-01-30T17:15:25.198Z,73.90
2019-01-30T17:17:54.194Z,69.47
2019-01-30T17:20:23.288Z,64.20
2019-01-30T17:22:52.361Z,102.30
2019-01-30T17:25:21.414Z,92.97
2019-01-30T17:27:50.538Z,87.20
2019-01-30T17:30:20.423Z,99.60
2019-01-30T17:32:49.488Z,73.57
2019-01-30T17:35:18.976Z,74.03
2019-01-30T17:37:47.971Z,84.27
2019-01-30T17:40:17.035Z,63.87
2019-01-30T17:42:46.125Z,69.90
2019-01-30T17:45:15.189Z,75.30
2019-01-30T17:47:44.252Z,64.00
2019-01-30T17:50:13.685Z,63.07
2019-01-30T17:52:42.748Z,64.00
2019-01-30T17:55:12.788Z,71.20
2019-01-30T17:57:41.886Z,80.10
2019-01-30T18:00:12.764Z,82.67
2019-01-30T18:02:41.845Z,67.67
2019-01-30T18:05:10.949Z,95.10
2019-01-30T18:07:40.018Z,77.13
2019-01-30T18:10:09.859Z,81.63
2019-01-30T18:12:39.139Z,73.73
2019-01-30T18:15:08.217Z,72.30
2019-01-30T18:17:37.290Z,74.90
2019-01-30T18:20:08.052Z,78.37
2019-01-30T18:22:35.712Z,85.53
2019-01-30T18:25:04.801Z,96.20
2019-01-30T18:27:33.957Z,90.13
2019-01-30T18:30:03.031Z,98.37
2019-01-30T18:32:32.108Z,90.30
2019-01-30T18:35:01.232Z,99.40
2019-01-30T18:37:30.302Z,110.17
2019-01-30T18:39:59.390Z,112.90
2019-01-30T18:42:28.495Z,116.73
2019-01-30T18:44:57.583Z,107.37
2019-01-30T18:47:26.669Z,103.67
2019-01-30T18:49:55.773Z,124.87
2019-01-30T18:52:24.856Z,156.60
2019-01-30T18:54:53.951Z,172.63
2019-01-30T18:57:23.975Z,151.13
2019-01-30T18:59:53.051Z,153.53
2019-01-30T19:02:22.532Z,163.93
2019-01-30T19:04:51.972Z,144.23
2019-01-30T19:07:20.964Z,170.70
2019-01-30T19:09:50.040Z,148.07
2019-01-30T19:12:19.156Z,145.33
2019-01-30T19:14:48.238Z,134.07
2019-01-30T19:17:17.317Z,144.60
2019-01-30T19:19:46.448Z,148.60
2019-01-30T19:22:15.861Z,146.67
2019-01-30T19:24:44.867Z,141.70
2019-01-30T19:27:13.975Z,145.00
2019-01-30T19:29:43.067Z,174.53
2019-01-30T19:32:12.138Z,212.20
2019-01-30T19:34:41.262Z,259.50
2019-01-30T19:37:10.336Z,257.60
2019-01-30T19:39:39.423Z,268.63
2019-01-30T19:42:08.566Z,244.77
2019-01-30T19:44:37.655Z,215.60
2019-01-30T19:47:06.754Z,238.13
2019-01-30T19:49:35.871Z,222.10
2019-01-30T19:52:04.948Z,186.80
2019-01-30T19:54:34.038Z,172.20
2019-01-30T19:57:03.147Z,190.90
2019-01-30T20:02:37.106Z,162.20
2019-01-30T20:20:39.829Z,189.30
2019-01-30T20:23:08.980Z,300.30
2019-01-30T20:25:38.130Z,285.60
2019-01-30T20:28:08.237Z,217.57
2019-01-30T20:30:36.552Z,223.80
2019-01-30T20:33:07.060Z,190.80
2019-01-30T20:35:35.164Z,216.17
2019-01-30T20:38:05.156Z,205.47
2019-01-30T20:40:33.465Z,187.53
2019-01-30T20:43:02.789Z,217.87
2019-01-30T20:45:33.757Z,188.93
2019-01-30T20:48:01.433Z,155.40
2019-01-30T20:50:31.890Z,116.57
2019-01-30T20:53:00.787Z,141.40
2019-01-30T20:55:30.273Z,133.67
2019-01-30T20:57:59.271Z,196.40
2019-01-30T21:00:29.102Z,218.60
2019-01-30T21:02:58.756Z,162.40
2019-01-30T21:05:26.536Z,142.57
2019-01-30T21:07:55.700Z,150.80
2019-01-30T21:10:25.890Z,228.70
2019-01-30T21:12:55.947Z,193.07
2019-01-30T21:15:25.085Z,146.17
2019-01-30T21:17:53.400Z,147.20
2019-01-30T21:20:22.846Z,106.87
2019-01-30T21:23:13.399Z,117.37
2019-01-30T21:25:51.336Z,111.33
2019-01-30T21:34:32.294Z,98.47
2019-01-30T21:42:50.733Z,138.30
2019-01-30T21:45:19.723Z,99.57
2019-01-30T21:56:21.758Z,134.12
2019-01-30T21:58:51.353Z,109.53
2019-01-30T22:01:20.752Z,102.77
2019-01-30T22:03:50.512Z,88.17
2019-01-30T22:09:20.940Z,55.67
2019-01-30T22:12:06.723Z,57.97
2019-01-30T22:15:06.465Z,60.60
2019-01-30T22:23:51.311Z,116.53
